Time;durP1;ratioP1;P1;durP2;ratioP2;P2;SDS_P1;SDS_P2;PMS_P1;PMS_P2;Temp;Humidity;BMP_temperature;BMP_pressure;BME280_temperature;BME280_humidity;BME280_pressure;Samples;Min_cycle;Max_cycle;Signal;HPM_P1;HPM_P2
2022/08/07 00:02:11;;;;;;;1.85;0.40;;;14.50;99.90;;;;;;4976383;28;20033;-72
2022/08/07 00:04:39;;;;;;;2.45;0.68;;;14.50;99.90;;;;;;4974919;28;20027;-72
2022/08/07 00:07:06;;;;;;;0.80;0.38;;;14.60;99.90;;;;;;4976865;28;20034;-72
2022/08/07 00:09:33;;;;;;;1.90;0.20;;;14.50;99.90;;;;;;4976371;28;20023;-71
2022/08/07 00:12:01;;;;;;;1.25;0.30;;;14.70;99.90;;;;;;4975252;28;20030;-71
2022/08/07 00:14:29;;;;;;;0.50;0.30;;;14.70;99.90;;;;;;4974877;28;20512;-71
2022/08/07 00:16:59;;;;;;;1.58;0.32;;;14.70;99.90;;;;;;4976141;28;20034;-73
2022/08/07 00:19:27;;;;;;;0.45;0.25;;;14.80;99.90;;;;;;4975246;28;20026;-73
2022/08/07 00:21:54;;;;;;;1.00;0.30;;;14.80;99.90;;;;;;4976160;28;20105;-73
2022/08/07 00:24:22;;;;;;;0.43;0.20;;;14.90;99.90;;;;;;4974849;28;20093;-72
2022/08/07 00:26:51;;;;;;;0.35;0.30;;;15.00;99.90;;;;;;4974267;28;20023;-73
2022/08/07 00:29:24;;;;;;;0.90;0.30;;;15.00;99.90;;;;;;4974617;28;20081;-73
2022/08/07 00:31:53;;;;;;;0.50;0.30;;;15.10;99.90;;;;;;4975110;28;20019;-75
2022/08/07 00:34:20;;;;;;;0.38;0.20;;;15.20;99.90;;;;;;4974735;28;20018;-73
2022/08/07 00:36:48;;;;;;;1.45;0.38;;;15.30;99.90;;;;;;4975967;28;20026;-72
2022/08/07 00:39:15;;;;;;;0.82;0.22;;;15.50;99.90;;;;;;4974667;28;20550;-73
2022/08/07 00:41:52;;;;;;;0.30;0.30;;;15.50;99.90;;;;;;4974396;28;20139;-73
2022/08/07 00:44:20;;;;;;;0.82;0.45;;;15.60;99.90;;;;;;4974342;28;20070;-74
2022/08/07 00:46:48;;;;;;;0.60;0.20;;;15.70;99.90;;;;;;4974113;28;20037;-73
2022/08/07 00:49:15;;;;;;;0.43;0.20;;;15.70;99.90;;;;;;4975524;28;20506;-75
2022/08/07 00:51:43;;;;;;;0.40;0.20;;;15.50;99.90;;;;;;4975558;28;20089;-71
2022/08/07 00:54:13;;;;;;;0.57;0.30;;;15.60;99.90;;;;;;4975628;28;20503;-74
2022/08/07 00:56:41;;;;;;;0.20;0.15;;;15.60;99.90;;;;;;4974562;28;20387;-74
2022/08/07 00:59:08;;;;;;;1.02;0.30;;;15.70;99.90;;;;;;4975694;28;20027;-73
2022/08/07 01:01:36;;;;;;;0.30;0.10;;;15.70;99.90;;;;;;4974158;28;20395;-74
2022/08/07 01:04:08;;;;;;;0.30;0.20;;;15.80;99.90;;;;;;4975700;28;20395;-73
2022/08/07 01:06:36;;;;;;;0.75;0.20;;;15.80;99.90;;;;;;4958031;28;20435;-75
2022/08/07 01:09:05;;;;;;;1.15;0.20;;;16.00;99.90;;;;;;4974134;28;20027;-74
2022/08/07 01:11:32;;;;;;;0.82;0.17;;;16.00;99.90;;;;;;4957923;28;20023;-75
2022/08/07 01:14:00;;;;;;;0.47;0.20;;;16.10;99.90;;;;;;4973948;28;20061;-72
2022/08/07 01:16:29;;;;;;;0.65;0.28;;;16.20;99.90;;;;;;4975163;28;20033;-72
2022/08/07 01:18:57;;;;;;;0.30;0.20;;;16.30;99.90;;;;;;4975230;28;20054;-76
2022/08/07 01:21:25;;;;;;;0.20;0.10;;;16.50;99.90;;;;;;4975450;28;20042;-76
2022/08/07 01:23:55;;;;;;;0.77;0.17;;;16.80;99.90;;;;;;4974009;28;20019;-75
2022/08/07 01:26:24;;;;;;;0.15;0.15;;;16.80;99.90;;;;;;4958325;28;20023;-73
2022/08/07 01:28:52;;;;;;;0.60;0.20;;;17.10;99.90;;;;;;4941985;28;20117;-73
2022/08/07 01:31:30;;;;;;;1.15;0.32;;;17.40;99.90;;;;;;4973727;28;20035;-74
2022/08/07 01:33:59;;;;;;;0.10;0.10;;;17.60;99.90;;;;;;4974891;28;20113;-75
2022/08/07 01:36:28;;;;;;;1.55;0.20;;;17.60;99.90;;;;;;4973759;28;20042;-76
2022/08/07 01:38:56;;;;;;;0.60;0.28;;;17.40;99.90;;;;;;4973604;28;20035;-74
2022/08/07 01:41:24;;;;;;;1.17;0.35;;;17.00;99.90;;;;;;4974690;28;20054;-74
2022/08/07 01:43:52;;;;;;;0.47;0.20;;;16.90;99.90;;;;;;4973583;28;20038;-76
2022/08/07 01:46:20;;;;;;;1.48;0.20;;;16.90;99.90;;;;;;4973205;28;20038;-75
2022/08/07 01:48:49;;;;;;;0.15;0.10;;;16.80;99.90;;;;;;4973406;28;20026;-71
2022/08/07 01:51:22;;;;;;;0.70;0.32;;;16.80;99.90;;;;;;4973398;28;20369;-72
2022/08/07 01:53:53;;;;;;;0.38;0.20;;;16.90;99.90;;;;;;4974680;28;20031;-72
2022/08/07 01:56:49;;;;;;;1.05;0.20;;;17.00;99.90;;;;;;4973240;28;20081;-72
2022/08/07 01:59:37;;;;;;;0.35;0.17;;;16.90;99.90;;;;;;4965178;28;20046;-73
2022/08/07 02:02:19;;;;;;;1.20;0.38;;;16.80;99.90;;;;;;4973714;28;20395;-72
2022/08/07 02:05:02;;;;;;;0.80;0.30;;;16.70;99.90;;;;;;4974405;28;20432;-73
2022/08/07 02:07:40;;;;;;;0.38;0.20;;;16.60;99.90;;;;;;4973459;28;20121;-73
2022/08/07 02:10:10;;;;;;;1.02;0.40;;;16.40;99.90;;;;;;4973151;28;20062;-72
2022/08/07 02:12:40;;;;;;;0.82;0.10;;;16.30;99.90;;;;;;4974343;28;20050;-72
2022/08/07 02:15:09;;;;;;;0.47;0.15;;;16.20;99.90;;;;;;4973060;28;20034;-71
2022/08/07 02:17:43;;;;;;;0.40;0.30;;;16.20;99.90;;;;;;4974201;28;20432;-73
2022/08/07 02:20:10;;;;;;;;;;;16.30;99.90;;;;;;4974741;28;20054;-72
2022/08/07 02:22:40;;;;;;;1.17;0.25;;;16.30;99.90;;;;;;4972714;28;19913;-72
2022/08/07 02:25:09;;;;;;;0.20;0.15;;;16.40;99.90;;;;;;4972835;28;20073;-72
2022/08/07 02:27:38;;;;;;;0.90;0.10;;;16.40;99.90;;;;;;4972792;28;20023;-72
2022/08/07 02:30:06;;;;;;;1.55;0.32;;;16.50;99.90;;;;;;4974131;28;20034;-73
2022/08/07 02:32:37;;;;;;;0.95;0.35;;;16.50;99.90;;;;;;4974046;28;20033;-73
2022/08/07 02:35:07;;;;;;;0.60;0.20;;;16.80;99.90;;;;;;4974591;28;20069;-72
2022/08/07 02:37:38;;;;;;;1.65;0.30;;;17.00;99.90;;;;;;4974160;28;20098;-73
2022/08/07 02:40:08;;;;;;;1.02;0.25;;;17.00;99.90;;;;;;4941541;28;20039;-73
2022/08/07 02:42:36;;;;;;;1.08;0.40;;;16.80;99.90;;;;;;4975186;28;20054;-73
2022/08/07 02:45:06;;;;;;;2.17;0.30;;;16.70;99.90;;;;;;4972469;28;20407;-73
2022/08/07 02:47:34;;;;;;;0.98;0.30;;;16.50;99.90;;;;;;4972759;28;20395;-73
2022/08/07 02:50:02;;;;;;;0.73;0.35;;;16.30;99.90;;;;;;4972987;28;20039;-72
2022/08/07 02:52:42;;;;;;;1.40;0.30;;;16.10;99.90;;;;;;4960929;28;20122;-73
2022/08/07 02:55:24;;;;;;;1.38;0.50;;;16.00;99.90;;;;;;4976598;28;20035;-73
2022/08/07 02:57:53;;;;;;;2.65;0.60;;;15.90;99.90;;;;;;4976507;28;20387;-73
2022/08/07 03:00:22;;;;;;;0.60;0.32;;;15.90;99.90;;;;;;4977773;28;20030;-73
2022/08/07 03:02:51;;;;;;;0.50;0.40;;;15.80;99.90;;;;;;4977771;28;20026;-73
2022/08/07 03:05:20;;;;;;;1.63;0.47;;;15.70;99.90;;;;;;4976426;28;20505;-72
2022/08/07 03:07:48;;;;;;;3.08;0.70;;;15.60;99.90;;;;;;4976774;28;20038;-73
2022/08/07 03:10:17;;;;;;;1.88;0.60;;;15.50;99.90;;;;;;4976173;28;20062;-74
2022/08/07 03:12:46;;;;;;;1.08;0.60;;;15.50;99.90;;;;;;4977888;28;20061;-72
2022/08/07 03:15:14;;;;;;;1.25;0.60;;;15.50;99.90;;;;;;4977561;28;20387;-73
2022/08/07 03:17:43;;;;;;;1.20;0.60;;;15.50;99.90;;;;;;4976255;28;20026;-72
2022/08/07 03:20:12;;;;;;;2.05;0.70;;;15.50;99.90;;;;;;4977524;28;20058;-74
2022/08/07 03:22:42;;;;;;;1.10;0.50;;;15.60;99.90;;;;;;4976252;28;20074;-73
2022/08/07 03:25:10;;;;;;;1.77;0.70;;;15.60;99.90;;;;;;4976064;28;20056;-74
2022/08/07 03:27:40;;;;;;;1.05;0.47;;;15.60;99.90;;;;;;4977378;28;20069;-73
2022/08/07 03:30:08;;;;;;;1.38;0.60;;;15.60;99.90;;;;;;4977375;28;20042;-74
2022/08/07 03:32:41;;;;;;;1.35;0.70;;;15.60;99.90;;;;;;4975897;28;20066;-74
2022/08/07 03:35:14;;;;;;;1.73;0.60;;;15.50;99.90;;;;;;4977219;28;20026;-73
2022/08/07 03:37:44;;;;;;;2.25;1.02;;;15.40;99.90;;;;;;4977222;28;20475;-73
2022/08/07 03:40:12;;;;;;;2.38;0.70;;;15.40;99.90;;;;;;4976867;28;20033;-73
2022/08/07 03:42:40;;;;;;;1.58;0.70;;;15.40;99.90;;;;;;4977065;28;20026;-74
2022/08/07 03:45:10;;;;;;;1.40;0.60;;;15.40;99.90;;;;;;4976630;28;20058;-75
2022/08/07 03:47:37;;;;;;;5.30;0.93;;;15.50;99.90;;;;;;4975849;28;20454;-74
2022/08/07 03:50:06;;;;;;;1.45;0.80;;;15.70;99.90;;;;;;4976952;28;20027;-74
2022/08/07 03:52:34;;;;;;;2.17;0.52;;;15.80;99.90;;;;;;4976047;28;20503;-74
2022/08/07 03:55:03;;;;;;;0.85;0.63;;;16.00;99.90;;;;;;4959682;28;20027;-74
2022/08/07 03:57:32;;;;;;;1.17;0.43;;;16.10;99.90;;;;;;4975473;28;20062;-74
2022/08/07 04:00:00;;;;;;;1.33;0.65;;;16.20;99.90;;;;;;4976708;28;20387;-73
2022/08/07 04:02:28;;;;;;;0.75;0.50;;;16.20;99.90;;;;;;4975647;28;20046;-73
2022/08/07 04:04:55;;;;;;;1.52;0.70;;;16.30;99.90;;;;;;4976931;28;20019;-74
2022/08/07 04:07:23;;;;;;;1.27;0.57;;;16.30;99.90;;;;;;4975310;28;20373;-73
2022/08/07 04:09:52;;;;;;;1.63;0.50;;;16.40;99.90;;;;;;4976557;28;20364;-72
2022/08/07 04:12:20;;;;;;;2.00;0.82;;;16.80;99.90;;;;;;4975293;28;20027;-73
2022/08/07 04:14:48;;;;;;;1.63;0.65;;;17.50;99.90;;;;;;4975150;28;20030;-74
2022/08/07 04:17:16;;;;;;;2.90;0.93;;;17.60;99.90;;;;;;4975030;28;20030;-75
2022/08/07 04:19:44;;;;;;;1.23;0.90;;;17.40;99.90;;;;;;4976455;28;20501;-74
2022/08/07 04:22:13;;;;;;;3.17;1.02;;;17.20;99.90;;;;;;4974998;28;20046;-75
2022/08/07 04:24:42;;;;;;;2.25;1.00;;;17.00;99.90;;;;;;4975072;28;20030;-73
2022/08/07 04:27:09;;;;;;;1.52;1.08;;;16.80;99.90;;;;;;4974962;28;20058;-73
2022/08/07 04:29:37;;;;;;;3.33;0.98;;;17.10;99.90;;;;;;4976608;28;20554;-73
2022/08/07 04:32:07;;;;;;;2.05;0.80;;;17.10;99.90;;;;;;4976124;28;20023;-74
2022/08/07 04:34:35;;;;;;;1.95;0.60;;;17.30;99.90;;;;;;4976465;28;20054;-74
2022/08/07 04:37:04;;;;;;;1.25;0.80;;;17.60;99.90;;;;;;4976064;28;20034;-74
2022/08/07 04:39:32;;;;;;;3.30;0.80;;;18.00;99.90;;;;;;4976020;28;20089;-74
2022/08/07 04:42:03;;;;;;;2.35;1.10;;;17.90;99.90;;;;;;4974546;28;20054;-74
2022/08/07 04:44:30;;;;;;;1.75;0.80;;;17.90;99.90;;;;;;4974346;28;20110;-73
2022/08/07 04:47:22;;;;;;;0.90;0.70;;;17.90;99.90;;;;;;4976035;28;20455;-75
2022/08/07 04:50:04;;;;;;;3.33;0.90;;;18.00;99.90;;;;;;4974520;28;20368;-74
2022/08/07 04:52:51;;;;;;;3.75;1.10;;;17.90;99.90;;;;;;4976395;28;20027;-72
2022/08/07 04:55:32;;;;;;;2.95;1.00;;;17.90;99.90;;;;;;4974548;28;20457;-72
2022/08/07 04:58:08;;;;;;;3.03;0.88;;;17.70;99.90;;;;;;4975943;28;20102;-72
2022/08/07 05:00:35;;;;;;;3.55;0.82;;;17.30;99.90;;;;;;4975951;28;20030;-73
2022/08/07 05:03:45;;;;;;;3.70;1.20;;;17.10;99.90;;;;;;4975555;28;20026;-72
2022/08/07 05:06:37;;;;;;;1.58;0.73;;;16.80;99.90;;;;;;4973956;28;20470;-72
2022/08/07 05:09:14;;;;;;;2.90;1.10;;;16.40;99.90;;;;;;4975630;28;20365;-72
2022/08/07 05:11:51;;;;;;;2.10;0.70;;;16.30;99.90;;;;;;4975625;28;20027;-71
2022/08/07 05:14:27;;;;;;;3.15;0.95;;;16.30;99.90;;;;;;4973776;28;20035;-72
2022/08/07 05:16:59;;;;;;;2.72;1.10;;;16.50;99.90;;;;;;4973989;28;20026;-72
2022/08/07 05:19:33;;;;;;;2.28;0.85;;;16.60;99.90;;;;;;4973922;28;20030;-71
2022/08/07 05:22:02;;;;;;;3.58;0.85;;;16.80;99.90;;;;;;4975838;28;20518;-72
2022/08/07 05:24:31;;;;;;;3.80;0.95;;;16.70;99.90;;;;;;4975600;28;20019;-71
2022/08/07 05:27:01;;;;;;;1.63;0.98;;;16.40;99.90;;;;;;4973936;28;20387;-72
2022/08/07 05:29:29;;;;;;;2.47;0.70;;;16.20;99.90;;;;;;4975020;28;20038;-72
2022/08/07 05:31:58;;;;;;;1.88;1.00;;;16.00;99.90;;;;;;4973685;28;20077;-72
2022/08/07 05:34:26;;;;;;;1.38;0.88;;;15.80;99.90;;;;;;4973761;28;20069;-73
2022/08/07 05:36:56;;;;;;;2.15;0.70;;;15.70;99.90;;;;;;4973589;28;20475;-73
2022/08/07 05:39:25;;;;;;;2.08;0.88;;;15.90;99.90;;;;;;4974930;28;20125;-72
2022/08/07 05:41:52;;;;;;;0.82;0.60;;;16.10;99.90;;;;;;4973753;28;20119;-72
2022/08/07 05:44:23;;;;;;;0.85;0.68;;;16.20;99.90;;;;;;4974539;28;20492;-72
2022/08/07 05:46:51;;;;;;;2.80;0.80;;;16.20;99.90;;;;;;4974454;28;20093;-72
2022/08/07 05:49:20;;;;;;;1.42;1.05;;;16.20;99.90;;;;;;4974841;28;20431;-71
2022/08/07 05:51:48;;;;;;;3.25;1.48;;;16.00;99.90;;;;;;4973677;28;20031;-73
2022/08/07 05:54:18;;;;;;;3.05;0.98;;;16.10;99.90;;;;;;4974637;28;20031;-73
2022/08/07 05:56:48;;;;;;;1.67;0.80;;;16.10;99.90;;;;;;4957528;28;20177;-71
2022/08/07 05:59:20;;;;;;;2.05;1.30;;;16.10;99.90;;;;;;4973754;28;20143;-72
2022/08/07 06:01:48;;;;;;;4.35;1.00;;;16.00;99.90;;;;;;4974515;28;20110;-72
2022/08/07 06:04:19;;;;;;;4.38;0.93;;;15.90;99.90;;;;;;4973273;28;20054;-72
2022/08/07 06:06:46;;;;;;;1.88;1.17;;;15.70;99.90;;;;;;4973284;28;20050;-73
2022/08/07 06:09:16;;;;;;;3.30;1.00;;;15.50;99.90;;;;;;4973200;28;20587;-72
2022/08/07 06:11:44;;;;;;;2.33;1.05;;;15.50;99.90;;;;;;4974818;28;20026;-72
2022/08/07 06:14:12;;;;;;;2.15;1.17;;;15.50;99.90;;;;;;4973042;28;20498;-73
2022/08/07 06:16:43;;;;;;;2.80;1.02;;;15.40;99.90;;;;;;4973362;28;20041;-72
2022/08/07 06:19:12;;;;;;;1.38;0.70;;;15.40;99.90;;;;;;4974693;28;20031;-72
2022/08/07 06:21:41;;;;;;;3.28;0.88;;;15.40;99.90;;;;;;4974310;28;20447;-72
2022/08/07 06:24:08;;;;;;;1.88;0.70;;;15.40;99.90;;;;;;4956921;28;20026;-72
2022/08/07 06:26:40;;;;;;;1.90;0.90;;;15.30;99.90;;;;;;4973679;28;20042;-72
2022/08/07 06:29:11;;;;;;;5.13;0.90;;;15.20;99.90;;;;;;4973323;28;20023;-72
2022/08/07 06:31:38;;;;;;;1.30;0.60;;;15.20;99.90;;;;;;4957328;28;20583;-73
2022/08/07 06:34:06;;;;;;;2.17;1.00;;;15.10;99.90;;;;;;4974494;28;20050;-73
2022/08/07 06:36:33;;;;;;;1.88;0.70;;;15.00;99.90;;;;;;4974500;28;20037;-72
2022/08/07 06:39:00;;;;;;;1.73;0.70;;;15.00;99.90;;;;;;4973959;28;20023;-73
2022/08/07 06:41:39;;;;;;;2.72;0.80;;;15.00;99.90;;;;;;4972649;28;20046;-73
2022/08/07 06:44:10;;;;;;;2.08;0.90;;;14.90;99.90;;;;;;4973050;28;20049;-73
2022/08/07 06:46:39;;;;;;;2.33;0.88;;;14.90;99.90;;;;;;4972766;28;20078;-73
2022/08/07 06:49:07;;;;;;;1.33;0.88;;;14.80;99.90;;;;;;4956919;28;20113;-72
2022/08/07 06:51:36;;;;;;;2.42;1.15;;;14.80;99.90;;;;;;4973094;28;20039;-73
2022/08/07 06:54:05;;;;;;;2.28;0.77;;;14.80;99.90;;;;;;4972692;28;20053;-72
2022/08/07 06:56:42;;;;;;;2.70;1.33;;;14.70;99.90;;;;;;4972575;28;20026;-72
2022/08/07 06:59:15;;;;;;;3.35;1.30;;;14.70;99.90;;;;;;4972556;28;20066;-72
2022/08/07 07:01:44;;;;;;;1.58;0.90;;;14.70;99.90;;;;;;4974356;28;20475;-72
2022/08/07 07:04:13;;;;;;;3.10;0.90;;;14.60;99.90;;;;;;4972427;28;20027;-72
2022/08/07 07:06:40;;;;;;;5.45;1.52;;;14.60;99.90;;;;;;4956704;28;20023;-70
2022/08/07 07:09:18;;;;;;;4.63;1.20;;;14.60;99.90;;;;;;4973804;28;20511;-71
2022/08/07 07:12:01;;;;;;;3.88;1.20;;;14.50;99.90;;;;;;4972426;28;20039;-72
2022/08/07 07:14:41;;;;;;;3.15;0.95;;;14.40;99.90;;;;;;4974136;28;20023;-72
2022/08/07 07:17:15;;;;;;;3.28;0.93;;;14.40;99.90;;;;;;4972292;28;20042;-71
2022/08/07 07:19:48;;;;;;;3.15;1.55;;;14.30;99.90;;;;;;4973859;28;20030;-72
2022/08/07 07:22:16;;;;;;;3.15;1.35;;;14.30;99.90;;;;;;4973575;28;20073;-73
2022/08/07 07:24:45;;;;;;;2.38;1.10;;;14.20;99.90;;;;;;4972399;28;20023;-72
2022/08/07 07:27:15;;;;;;;1.80;0.90;;;14.10;99.90;;;;;;4972230;28;20034;-72
2022/08/07 07:29:48;;;;;;;4.63;3.38;;;14.00;99.90;;;;;;4972319;28;20030;-72
2022/08/07 07:32:17;;;;;;;5.22;2.17;;;13.90;99.90;;;;;;4972459;28;20043;-73
2022/08/07 07:34:52;;;;;;;15.98;10.80;;;13.80;99.90;;;;;;4973622;28;20027;-72
2022/08/07 07:37:23;;;;;;;5.82;2.70;;;13.80;99.90;;;;;;4975900;28;20031;-70
2022/08/07 07:39:54;;;;;;;6.38;2.20;;;13.80;99.90;;;;;;4959927;28;20035;-70
2022/08/07 07:42:26;;;;;;;6.90;3.20;;;13.80;99.90;;;;;;4977297;28;20431;-70
2022/08/07 07:44:54;;;;;;;5.30;1.63;;;13.70;99.90;;;;;;4975602;28;20039;-70
2022/08/07 07:47:25;;;;;;;4.57;1.73;;;13.80;99.90;;;;;;4976919;28;20030;-70
2022/08/07 07:49:54;;;;;;;5.70;2.50;;;13.80;99.90;;;;;;4975693;28;20042;-71
2022/08/07 07:52:23;;;;;;;5.10;1.70;;;13.70;99.90;;;;;;4975497;28;20113;-70
2022/08/07 07:54:51;;;;;;;9.98;2.53;;;13.70;99.90;;;;;;4975351;28;20033;-70
2022/08/07 07:57:23;;;;;;;4.03;1.38;;;13.50;99.90;;;;;;4976819;28;20027;-70
2022/08/07 07:59:53;;;;;;;4.20;1.42;;;13.50;99.90;;;;;;4976661;28;20027;-70
2022/08/07 08:02:22;;;;;;;3.05;1.00;;;13.60;99.90;;;;;;4976621;28;20098;-71
2022/08/07 08:04:51;;;;;;;2.67;1.15;;;13.60;99.90;;;;;;4976751;28;20057;-70
2022/08/07 08:07:19;;;;;;;5.18;1.50;;;13.50;99.90;;;;;;4975171;28;20023;-70
2022/08/07 08:09:49;;;;;;;3.60;1.13;;;13.50;99.90;;;;;;4976585;28;20057;-70
2022/08/07 08:12:17;;;;;;;3.78;1.73;;;13.40;99.90;;;;;;4977063;28;20030;-70
2022/08/07 08:14:44;;;;;;;2.13;1.30;;;13.40;99.90;;;;;;4976423;28;20487;-69
2022/08/07 08:17:14;;;;;;;2.53;1.20;;;13.40;99.90;;;;;;4975102;28;20031;-70
2022/08/07 08:19:42;;;;;;;3.05;1.25;;;13.30;99.90;;;;;;4976429;28;20018;-70
2022/08/07 08:27:52;;;;;;;3.55;1.90;;;13.30;99.90;;;;;;4976362;28;20042;-70
2022/08/07 08:30:21;;;;;;;3.60;1.35;;;13.30;99.90;;;;;;4975109;28;20479;-70
2022/08/07 08:32:52;;;;;;;4.03;1.40;;;13.20;99.90;;;;;;4976398;28;20023;-69
2022/08/07 08:35:24;;;;;;;3.55;1.40;;;13.20;99.90;;;;;;4976190;28;20050;-69
2022/08/07 08:38:01;;;;;;;5.28;1.60;;;13.20;99.90;;;;;;4976236;28;20019;-69
2022/08/07 08:40:41;;;;;;;2.75;0.90;;;13.20;99.90;;;;;;4976412;28;20472;-70
2022/08/07 08:43:20;;;;;;;3.13;0.90;;;13.30;99.90;;;;;;4976363;28;20023;-72
2022/08/07 08:46:05;;;;;;;3.83;0.98;;;13.30;99.90;;;;;;4974400;28;20043;-70
2022/08/07 08:48:46;;;;;;;2.78;1.08;;;13.20;99.90;;;;;;4973914;28;20031;-70
2022/08/07 08:51:35;;;;;;;5.35;1.20;;;13.10;99.90;;;;;;4974569;28;20027;-70
2022/08/07 08:54:10;;;;;;;2.20;1.10;;;13.10;99.90;;;;;;4975805;28;20395;-70
2022/08/07 08:56:42;;;;;;;4.00;1.27;;;13.10;99.90;;;;;;4975799;28;20061;-70
2022/08/07 08:59:20;;;;;;;2.55;0.88;;;13.10;99.90;;;;;;4975817;28;20110;-70
2022/08/07 09:01:53;;;;;;;3.05;1.50;;;13.10;99.90;;;;;;4974387;28;20035;-70
2022/08/07 09:04:40;;;;;;;4.20;1.30;;;13.10;99.90;;;;;;4975083;28;20061;-70
2022/08/07 09:07:35;;;;;;;4.10;1.48;;;13.20;99.90;;;;;;4975498;28;20054;-69
2022/08/07 09:10:14;;;;;;;4.28;2.00;;;13.10;99.90;;;;;;4974246;28;20117;-71
2022/08/07 09:13:00;;;;;;;4.85;1.50;;;13.10;99.90;;;;;;4974157;28;20051;-70
2022/08/07 09:15:45;;;;;;;3.10;1.83;;;13.00;99.90;;;;;;4975842;28;20368;-70
2022/08/07 09:18:26;;;;;;;3.97;1.67;;;13.00;99.90;;;;;;4975886;28;20092;-70
2022/08/07 09:21:25;;;;;;;5.00;2.10;;;12.90;99.90;;;;;;4973938;28;20023;-71
2022/08/07 09:24:20;;;;;;;5.32;2.20;;;12.90;99.90;;;;;;4923522;28;20036;-70
2022/08/07 09:27:29;;;;;;;11.27;2.60;;;12.90;99.90;;;;;;4975338;28;20014;-71
2022/08/07 09:30:03;;;;;;;7.00;2.22;;;12.80;99.90;;;;;;4943166;28;20182;-71
2022/08/07 09:32:55;;;;;;;7.78;2.80;;;12.80;99.90;;;;;;4975428;28;20018;-72
2022/08/07 09:35:42;;;;;;;6.68;3.30;;;12.80;99.90;;;;;;4974047;28;20431;-71
2022/08/07 09:38:16;;;;;;;4.07;2.08;;;12.70;99.90;;;;;;4975353;28;20486;-71
2022/08/07 09:41:12;;;;;;;5.70;1.90;;;12.60;99.90;;;;;;4973698;28;20126;-73
2022/08/07 09:43:51;;;;;;;5.20;2.55;;;12.60;99.90;;;;;;4975131;28;20094;-71
2022/08/07 09:46:31;;;;;;;4.03;1.63;;;12.60;99.90;;;;;;4973586;28;20053;-71
2022/08/07 09:49:17;;;;;;;5.50;1.70;;;12.60;99.90;;;;;;4975055;28;20027;-71
2022/08/07 09:51:59;;;;;;;5.15;2.15;;;12.60;99.90;;;;;;4973677;28;20026;-71
2022/08/07 09:54:53;;;;;;;6.30;2.40;;;12.70;99.90;;;;;;4973728;28;20094;-71
2022/08/07 09:57:45;;;;;;;4.63;2.28;;;12.70;99.90;;;;;;4974734;28;20090;-71
2022/08/07 10:00:36;;;;;;;8.43;2.80;;;12.70;99.90;;;;;;4973969;28;20027;-72
2022/08/07 10:03:03;;;;;;;;;;;12.90;99.90;;;;;;4973623;28;20027;-72
2022/08/07 10:05:50;;;;;;;4.70;2.03;;;12.90;99.90;;;;;;4973890;28;19906;-71
2022/08/07 10:08:42;;;;;;;3.95;2.13;;;12.90;99.90;;;;;;4975011;28;20031;-72
2022/08/07 10:11:36;;;;;;;5.78;2.75;;;12.90;99.90;;;;;;4975155;28;20023;-72
2022/08/07 10:14:22;;;;;;;3.95;2.10;;;12.90;99.90;;;;;;4975014;28;20030;-72
2022/08/07 10:17:00;;;;;;;4.00;2.00;;;12.90;99.90;;;;;;4974871;28;20027;-71
2022/08/07 10:19:48;;;;;;;6.50;2.47;;;12.90;99.90;;;;;;4975310;28;20551;-73
2022/08/07 10:22:35;;;;;;;3.22;1.92;;;12.80;99.90;;;;;;4974689;28;20037;-71
2022/08/07 10:25:29;;;;;;;4.20;1.63;;;12.70;99.90;;;;;;4974640;28;20038;-73
2022/08/07 10:28:11;;;;;;;;;;;12.60;99.90;;;;;;4973754;28;20257;-71
2022/08/07 10:31:02;;;;;;;3.53;2.00;;;12.60;99.90;;;;;;4974748;28;20278;-71
2022/08/07 10:33:52;;;;;;;4.30;1.48;;;12.50;99.90;;;;;;4973225;28;20038;-71
2022/08/07 10:36:45;;;;;;;5.75;1.98;;;12.50;99.90;;;;;;4973229;28;20034;-71
2022/08/07 10:39:21;;;;;;;4.43;1.98;;;12.40;99.90;;;;;;4973138;28;20027;-70
2022/08/07 10:42:15;;;;;;;4.82;1.48;;;12.40;99.90;;;;;;4975029;28;20471;-72
2022/08/07 10:45:00;;;;;;;3.97;1.50;;;12.40;99.90;;;;;;4974260;28;20443;-70
2022/08/07 10:47:53;;;;;;;5.88;2.00;;;12.40;99.90;;;;;;4972899;28;20037;-70
2022/08/07 10:50:41;;;;;;;4.90;1.30;;;12.30;99.90;;;;;;4943798;28;20449;-69
2022/08/07 10:53:20;;;;;;;3.80;1.25;;;12.30;99.90;;;;;;4973558;28;20023;-70
2022/08/07 10:56:09;;;;;;;7.82;1.63;;;12.20;99.90;;;;;;4974204;28;20110;-71
2022/08/07 10:58:52;;;;;;;4.50;1.80;;;12.20;99.90;;;;;;4974193;28;20102;-70
2022/08/07 11:01:31;;;;;;;5.18;1.85;;;12.20;99.90;;;;;;4974108;28;20023;-70
2022/08/07 11:04:30;;;;;;;3.50;1.27;;;12.20;99.90;;;;;;4972916;28;20110;-71
2022/08/07 11:07:30;;;;;;;3.35;1.10;;;12.10;99.90;;;;;;4937053;28;20614;-69
2022/08/07 11:10:05;;;;;;;4.40;0.93;;;12.10;99.90;;;;;;4974490;28;20058;-70
2022/08/07 11:12:38;;;;;;;3.28;0.90;;;12.10;99.90;;;;;;4976419;28;20022;-70
2022/08/07 11:15:11;;;;;;;2.40;0.60;;;12.10;99.90;;;;;;4976409;28;20026;-70
2022/08/07 11:18:32;;;;;;;4.15;1.33;;;12.00;99.90;;;;;;4976576;28;20395;-68
2022/08/07 11:21:02;;;;;;;4.40;1.13;;;12.00;99.90;;;;;;4946149;28;20039;-71
2022/08/07 11:23:35;;;;;;;4.45;1.08;;;12.00;99.90;;;;;;4976465;28;20022;-70
2022/08/07 11:26:10;;;;;;;1.95;0.90;;;11.90;99.90;;;;;;4977698;28;20077;-70
2022/08/07 11:28:54;;;;;;;3.47;1.00;;;11.90;99.90;;;;;;4976012;28;20054;-70
2022/08/07 11:31:55;;;;;;;7.22;1.23;;;11.90;99.90;;;;;;4976070;28;20385;-69
2022/08/07 11:34:51;;;;;;;4.63;1.20;;;11.90;99.90;;;;;;4976081;28;20105;-70
2022/08/07 11:37:31;;;;;;;4.43;1.00;;;11.80;99.90;;;;;;4962592;28;20051;-70
2022/08/07 11:40:08;;;;;;;3.35;0.85;;;11.70;99.90;;;;;;4975829;28;20446;-70
2022/08/07 11:42:50;;;;;;;2.95;1.02;;;11.60;99.90;;;;;;4977172;28;20030;-71
2022/08/07 11:45:17;;;;;;;3.65;1.20;;;11.60;99.90;;;;;;4975612;28;20054;-71
2022/08/07 11:48:19;;;;;;;3.97;0.95;;;11.60;99.90;;;;;;4975803;28;20418;-70
2022/08/07 11:51:26;;;;;;;2.38;0.98;;;11.50;99.90;;;;;;4965587;28;20122;-71
2022/08/07 11:53:57;;;;;;;3.38;1.10;;;11.40;99.90;;;;;;4975674;28;20027;-70
2022/08/07 11:56:36;;;;;;;3.15;1.08;;;11.40;99.90;;;;;;4975537;28;20033;-71
2022/08/07 11:59:45;;;;;;;5.18;1.52;;;11.30;99.90;;;;;;4975471;28;20126;-70
2022/08/07 12:02:33;;;;;;;4.53;1.15;;;11.30;99.90;;;;;;4977075;28;20035;-72
2022/08/07 12:05:01;;;;;;;2.72;0.85;;;11.40;99.90;;;;;;4977056;28;20026;-72
2022/08/07 12:07:59;;;;;;;6.90;1.58;;;11.40;99.90;;;;;;4977272;28;20031;-72
2022/08/07 12:10:41;;;;;;;4.47;1.48;;;11.40;99.90;;;;;;4971609;28;20034;-71
2022/08/07 12:13:23;;;;;;;4.15;1.00;;;11.40;99.90;;;;;;4976639;28;20066;-71
2022/08/07 12:16:03;;;;;;;4.53;1.20;;;11.40;99.90;;;;;;4976566;28;20030;-70
2022/08/07 12:18:41;;;;;;;2.08;0.98;;;11.30;99.90;;;;;;4975265;28;20130;-70
2022/08/07 12:21:26;;;;;;;4.07;0.98;;;11.20;99.90;;;;;;4976406;28;20023;-70
2022/08/07 12:24:25;;;;;;;3.17;1.23;;;11.20;99.90;;;;;;4975695;28;20023;-70
2022/08/07 12:27:12;;;;;;;3.95;1.27;;;11.20;99.90;;;;;;4944572;28;20495;-71
2022/08/07 12:29:48;;;;;;;2.60;0.90;;;11.10;99.90;;;;;;4975524;28;20034;-71
2022/08/07 12:32:39;;;;;;;4.47;1.00;;;11.10;99.90;;;;;;4976522;28;20106;-70
2022/08/07 12:35:12;;;;;;;1.55;0.93;;;11.20;99.90;;;;;;4975133;28;20018;-71
2022/08/07 12:37:42;;;;;;;5.22;1.23;;;11.30;99.90;;;;;;4976277;28;20023;-71
2022/08/07 12:40:12;;;;;;;5.63;1.27;;;11.20;99.90;;;;;;4974781;28;20062;-71
2022/08/07 12:42:42;;;;;;;2.80;1.10;;;11.10;99.90;;;;;;4975652;28;20472;-71
2022/08/07 12:45:19;;;;;;;3.53;1.30;;;11.10;99.90;;;;;;4974710;28;20109;-71
2022/08/07 12:47:58;;;;;;;2.97;1.08;;;11.00;99.90;;;;;;4974653;28;20022;-71
2022/08/07 12:50:35;;;;;;;2.25;1.08;;;10.90;99.90;;;;;;4974756;28;20101;-71
2022/08/07 12:53:19;;;;;;;2.58;1.10;;;10.80;99.90;;;;;;4975931;28;20491;-70
2022/08/07 12:56:09;;;;;;;3.60;1.15;;;10.80;99.90;;;;;;4975991;28;20454;-70
2022/08/07 12:58:41;;;;;;;3.78;1.15;;;10.80;99.90;;;;;;4975751;28;20031;-71
2022/08/07 13:01:18;;;;;;;2.58;1.02;;;10.80;99.90;;;;;;4974387;28;20034;-71
2022/08/07 13:04:19;;;;;;;2.88;0.90;;;10.70;99.90;;;;;;4976222;28;20383;-70
2022/08/07 13:07:05;;;;;;;2.75;1.10;;;10.60;99.90;;;;;;4976078;28;20023;-70
2022/08/07 13:10:07;;;;;;;5.15;1.42;;;10.60;99.90;;;;;;4975697;28;20026;-70
2022/08/07 13:12:52;;;;;;;5.07;1.40;;;10.70;99.90;;;;;;4975946;28;20031;-70
2022/08/07 13:15:41;;;;;;;4.82;1.00;;;10.70;99.90;;;;;;4975476;28;20105;-70
2022/08/07 13:18:42;;;;;;;2.78;1.13;;;10.70;99.90;;;;;;4974159;28;20452;-70
2022/08/07 13:21:17;;;;;;;2.20;1.20;;;10.70;99.90;;;;;;4970307;28;20476;-71
2022/08/07 13:24:07;;;;;;;3.42;1.20;;;10.70;99.90;;;;;;4974087;28;20023;-71
2022/08/07 13:27:18;;;;;;;3.00;1.10;;;10.70;99.90;;;;;;4964067;28;20169;-69
2022/08/07 13:30:14;;;;;;;4.10;1.40;;;10.60;99.90;;;;;;4975273;28;20023;-70
2022/08/07 13:32:51;;;;;;;4.40;1.70;;;10.50;99.90;;;;;;4974427;28;20082;-70
2022/08/07 13:36:02;;;;;;;3.65;1.70;;;10.50;99.90;;;;;;4975500;28;20023;-71
2022/08/07 13:38:58;;;;;;;3.92;2.00;;;10.50;99.90;;;;;;4974802;28;20102;-71